createdAt,value
2018-02-24T00:01:41.096Z,50.60
2018-02-24T00:04:08.575Z,52.10
2018-02-24T00:06:36.072Z,50.20
2018-02-24T00:09:03.578Z,49.40
2018-02-24T00:11:31.079Z,52.30
2018-02-24T00:13:58.560Z,55.50
2018-02-24T00:16:26.067Z,53.10
2018-02-24T00:18:53.560Z,54.10
2018-02-24T00:21:21.070Z,52.80
2018-02-24T00:23:48.561Z,50.50
2018-02-24T00:26:16.189Z,50.40
2018-02-24T00:28:43.681Z,53.70
2018-02-24T00:31:11.207Z,53.60
2018-02-24T00:33:38.693Z,51.90
2018-02-24T00:36:06.186Z,53.00
2018-02-24T00:38:33.681Z,53.90
2018-02-24T00:41:01.188Z,54.30
2018-02-24T00:43:28.671Z,54.40
2018-02-24T00:45:56.179Z,53.60
2018-02-24T00:48:23.661Z,51.10
2018-02-24T00:50:51.949Z,51.80
2018-02-24T00:53:20.199Z,54.20
2018-02-24T00:55:48.494Z,52.30
2018-02-24T00:58:16.760Z,53.40
2018-02-24T01:00:45.027Z,56.20
2018-02-24T01:03:13.303Z,52.20
2018-02-24T01:05:40.823Z,51.60
2018-02-24T01:08:08.325Z,54.30
2018-02-24T01:10:36.602Z,53.50
2018-02-24T01:13:04.870Z,54.50
2018-02-24T01:15:33.159Z,53.20
2018-02-24T01:18:01.405Z,54.60
2018-02-24T01:20:28.912Z,54.50
2018-02-24T01:22:56.396Z,54.80
2018-02-24T01:25:23.917Z,53.60
2018-02-24T01:27:52.162Z,56.40
2018-02-24T01:30:19.681Z,56.40
2018-02-24T01:32:47.176Z,55.60
2018-02-24T01:35:14.716Z,52.70
2018-02-24T01:37:42.981Z,53.90
2018-02-24T01:40:10.475Z,53.80
2018-02-24T01:42:37.989Z,53.80
2018-02-24T01:45:05.638Z,55.70
2018-02-24T01:47:33.125Z,55.90
2018-02-24T01:50:00.614Z,54.20
2018-02-24T01:52:28.150Z,56.80
2018-02-24T01:54:55.626Z,58.10
2018-02-24T01:57:23.159Z,55.00
2018-02-24T01:59:50.649Z,54.00
2018-02-24T02:02:18.178Z,56.90
2018-02-24T02:04:45.712Z,56.70
2018-02-24T02:07:13.193Z,56.80
2018-02-24T02:09:42.331Z,54.80
2018-02-24T02:12:10.567Z,58.00
2018-02-24T02:14:38.073Z,57.50
2018-02-24T02:17:06.309Z,54.80
2018-02-24T02:19:33.823Z,54.70
2018-02-24T02:22:01.321Z,55.30
2018-02-24T02:24:28.851Z,54.20
2018-02-24T02:26:56.366Z,57.40
2018-02-24T02:29:23.889Z,57.20
2018-02-24T02:31:52.140Z,54.90
2018-02-24T02:34:19.666Z,54.80
2018-02-24T02:36:47.930Z,56.70
2018-02-24T02:39:15.473Z,56.40
2018-02-24T02:41:42.957Z,55.80
2018-02-24T02:44:11.204Z,57.50
2018-02-24T02:46:38.720Z,57.30
2018-02-24T02:49:06.195Z,58.10
2018-02-24T02:51:33.700Z,57.00
2018-02-24T02:54:01.193Z,55.10
2018-02-24T02:56:28.708Z,55.50
2018-02-24T02:58:56.265Z,53.90
2018-02-24T03:01:23.779Z,55.10
2018-02-24T03:03:51.268Z,55.10
2018-02-24T03:06:18.779Z,53.70
2018-02-24T03:08:46.259Z,56.50
2018-02-24T03:11:13.746Z,56.90
2018-02-24T03:13:41.224Z,56.80
2018-02-24T03:16:09.504Z,56.40
2018-02-24T03:18:37.743Z,56.60
2018-02-24T03:21:05.267Z,56.20
2018-02-24T03:23:32.757Z,53.90
2018-02-24T03:26:00.254Z,57.20
2018-02-24T03:28:28.499Z,57.70
2018-02-24T03:30:56.006Z,57.70
2018-02-24T03:33:24.243Z,57.70
2018-02-24T03:35:51.763Z,57.50
2018-02-24T03:38:19.239Z,57.00
2018-02-24T03:40:46.772Z,56.60
2018-02-24T03:43:14.264Z,57.80
2018-02-24T03:45:56.685Z,56.90
2018-02-24T03:48:24.155Z,55.00
2018-02-24T03:50:51.684Z,55.00
2018-02-24T03:53:19.184Z,55.80
2018-02-24T03:55:47.460Z,54.20
2018-02-24T03:58:15.714Z,54.80
2018-02-24T04:00:43.225Z,54.80
2018-02-24T04:03:10.695Z,55.60
2018-02-24T04:05:38.195Z,56.40
2018-02-24T04:08:05.698Z,55.60
2018-02-24T04:10:33.208Z,58.50
2018-02-24T04:13:00.709Z,58.10
2018-02-24T04:15:28.214Z,58.00
2018-02-24T04:17:55.678Z,56.70
2018-02-24T04:20:23.212Z,55.00
2018-02-24T04:22:50.690Z,54.60
2018-02-24T04:25:18.216Z,56.90
2018-02-24T04:27:45.692Z,54.00
2018-02-24T04:30:13.202Z,54.00
2018-02-24T04:32:41.460Z,58.90
2018-02-24T04:35:08.971Z,58.90
2018-02-24T04:37:36.447Z,61.00
2018-02-24T04:40:03.956Z,55.60
2018-02-24T04:42:32.206Z,56.60
2018-02-24T04:44:59.730Z,56.60
2018-02-24T04:47:27.244Z,58.10
2018-02-24T04:49:55.517Z,58.10
2018-02-24T04:52:23.784Z,57.80
2018-02-24T04:54:52.075Z,56.30
2018-02-24T04:57:20.316Z,56.80
2018-02-24T04:59:47.810Z,56.70
2018-02-24T05:02:15.304Z,55.90
2018-02-24T05:04:42.820Z,57.40
2018-02-24T05:07:11.055Z,56.50
2018-02-24T05:09:39.333Z,58.40
2018-02-24T05:12:06.815Z,58.50
2018-02-24T05:14:34.344Z,57.30
2018-02-24T05:17:01.833Z,56.40
2018-02-24T05:19:30.131Z,55.90
2018-02-24T05:21:58.371Z,56.90
2018-02-24T05:24:25.872Z,56.80
2018-02-24T05:26:53.364Z,56.90
2018-02-24T05:29:20.879Z,55.80
2018-02-24T05:31:49.125Z,57.00
2018-02-24T05:34:16.620Z,57.10
2018-02-24T05:36:44.099Z,60.50
2018-02-24T05:39:11.630Z,58.80
2018-02-24T05:41:39.863Z,57.50
2018-02-24T05:44:07.385Z,57.40
2018-02-24T05:46:34.868Z,55.50
2018-02-24T05:49:02.392Z,57.30
2018-02-24T05:51:29.883Z,56.90
2018-02-24T05:53:57.788Z,56.70
2018-02-24T05:56:26.054Z,57.90
2018-02-24T05:58:53.540Z,57.80
2018-02-24T06:01:21.802Z,58.00
2018-02-24T06:03:50.071Z,55.70
2018-02-24T06:06:20.873Z,55.60
2018-02-24T06:08:48.386Z,56.30
2018-02-24T06:11:15.968Z,57.20
2018-02-24T06:13:43.464Z,57.10
2018-02-24T06:16:10.980Z,61.20
2018-02-24T06:18:38.458Z,59.40
2018-02-24T06:21:06.757Z,59.60
2018-02-24T06:23:34.250Z,59.70
2018-02-24T06:26:02.562Z,57.80
2018-02-24T06:28:30.035Z,57.80
2018-02-24T06:30:57.559Z,57.00
2018-02-24T06:33:25.173Z,59.70
2018-02-24T06:35:52.679Z,58.50
2018-02-24T06:38:20.169Z,59.00
2018-02-24T06:40:47.672Z,56.10
2018-02-24T06:43:15.927Z,59.40
2018-02-24T06:45:43.444Z,59.30
2018-02-24T06:48:10.965Z,59.40
2018-02-24T06:50:38.466Z,57.00
2018-02-24T06:53:05.952Z,58.10
2018-02-24T06:55:33.448Z,59.70
2018-02-24T06:58:00.966Z,56.80
2018-02-24T07:00:28.488Z,57.10
2018-02-24T07:02:55.990Z,57.70
2018-02-24T07:05:23.491Z,55.60
2018-02-24T07:07:50.974Z,56.60
2018-02-24T07:10:19.262Z,57.40
2018-02-24T07:12:46.768Z,57.30
2018-02-24T07:15:14.309Z,56.00
2018-02-24T07:17:41.788Z,56.00
2018-02-24T07:20:09.325Z,60.60
2018-02-24T07:22:36.858Z,57.40
2018-02-24T07:25:04.376Z,55.10
2018-02-24T07:27:31.850Z,54.00
2018-02-24T07:29:59.503Z,53.70
2018-02-24T07:32:27.016Z,56.40
2018-02-24T07:34:54.576Z,58.10
2018-02-24T07:37:22.068Z,53.40
2018-02-24T07:39:49.551Z,56.90
2018-02-24T07:42:17.053Z,55.30
2018-02-24T07:44:45.344Z,53.60
2018-02-24T07:47:13.597Z,54.00
2018-02-24T07:49:41.094Z,54.00
2018-02-24T07:52:08.632Z,52.90
2018-02-24T07:54:36.984Z,52.30
2018-02-24T07:57:04.504Z,52.30
2018-02-24T07:59:32.014Z,52.00
2018-02-24T08:01:59.518Z,50.80
2018-02-24T08:04:27.010Z,51.20
2018-02-24T08:06:54.530Z,51.80
2018-02-24T08:09:22.024Z,50.70
2018-02-24T08:11:49.551Z,49.30
2018-02-24T08:14:17.041Z,49.60
2018-02-24T08:16:44.557Z,48.70
2018-02-24T08:19:12.051Z,46.70
2018-02-24T08:21:39.570Z,45.90
2018-02-24T08:24:07.079Z,45.40
2018-02-24T08:26:34.595Z,46.40
2018-02-24T08:29:02.139Z,46.80
2018-02-24T08:31:29.722Z,44.80
2018-02-24T08:33:57.213Z,45.40
2018-02-24T08:36:25.231Z,43.60
2018-02-24T08:38:52.721Z,43.00
2018-02-24T08:41:20.196Z,42.40
2018-02-24T08:43:47.683Z,39.80
2018-02-24T08:46:16.011Z,37.00
2018-02-24T08:48:43.553Z,37.00
2018-02-24T08:51:11.051Z,38.50
2018-02-24T08:53:38.701Z,37.30
2018-02-24T08:56:06.186Z,36.30
2018-02-24T08:58:33.697Z,38.00
2018-02-24T09:01:01.216Z,34.70
2018-02-24T09:03:29.572Z,37.30
2018-02-24T09:05:57.063Z,37.20
2018-02-24T09:08:24.591Z,34.50
2018-02-24T09:10:52.101Z,32.20
2018-02-24T09:13:19.617Z,31.60
2018-02-24T09:15:47.102Z,32.00
2018-02-24T09:18:14.613Z,31.60
2018-02-24T09:20:42.107Z,29.70
2018-02-24T09:23:10.381Z,28.90
2018-02-24T09:25:38.633Z,27.50
2018-02-24T09:28:06.131Z,27.40
2018-02-24T09:30:33.626Z,27.70
2018-02-24T09:33:01.189Z,28.20
2018-02-24T09:35:28.679Z,26.50
2018-02-24T09:37:56.189Z,26.90
2018-02-24T09:40:23.660Z,27.00
2018-02-24T09:42:51.172Z,26.20
2018-02-24T09:45:19.454Z,26.40
2018-02-24T09:47:47.735Z,24.90
2018-02-24T09:50:15.258Z,24.90
2018-02-24T09:52:42.791Z,25.30
2018-02-24T09:55:10.288Z,25.70
2018-02-24T09:57:38.587Z,24.90
2018-02-24T10:00:06.126Z,24.90
2018-02-24T10:02:33.649Z,23.80
2018-02-24T10:05:01.122Z,24.10
2018-02-24T10:07:28.623Z,24.60
2018-02-24T10:09:56.108Z,23.90
2018-02-24T10:12:23.617Z,24.50
2018-02-24T10:14:51.098Z,23.50
2018-02-24T10:17:18.626Z,21.70
2018-02-24T10:19:46.114Z,22.00
2018-02-24T10:22:13.620Z,20.80
2018-02-24T10:24:41.106Z,19.80
2018-02-24T10:27:08.656Z,19.40
2018-02-24T10:29:36.135Z,20.60
2018-02-24T10:32:03.683Z,19.20
2018-02-24T10:34:31.175Z,19.60
2018-02-24T10:36:58.689Z,19.00
2018-02-24T10:39:26.159Z,21.30
2018-02-24T10:41:53.682Z,20.70
2018-02-24T10:44:21.182Z,19.00
2018-02-24T10:46:49.455Z,17.90
2018-02-24T10:49:17.716Z,17.60
2018-02-24T10:51:45.272Z,17.50
2018-02-24T10:54:12.853Z,16.60
2018-02-24T10:56:41.130Z,18.00
2018-02-24T10:59:09.368Z,18.40
2018-02-24T11:01:36.900Z,18.30
2018-02-24T11:04:04.376Z,17.80
2018-02-24T11:06:31.882Z,16.80
2018-02-24T11:09:00.160Z,19.90
2018-02-24T11:11:28.480Z,17.80
2018-02-24T11:13:55.974Z,17.30
2018-02-24T11:16:24.254Z,18.30
2018-02-24T11:18:51.781Z,18.20
2018-02-24T11:21:19.301Z,16.80
2018-02-24T11:23:46.821Z,17.00
2018-02-24T11:26:15.084Z,17.00
2018-02-24T11:28:42.668Z,16.50
2018-02-24T11:31:10.158Z,17.40
2018-02-24T11:33:37.666Z,18.30
2018-02-24T11:36:05.160Z,18.20
2018-02-24T11:38:32.684Z,16.60
2018-02-24T11:41:01.023Z,16.70
2018-02-24T11:43:28.561Z,17.20
2018-02-24T11:45:56.041Z,17.00
2018-02-24T11:48:23.554Z,18.00
2018-02-24T11:50:51.057Z,17.60
2018-02-24T11:53:18.584Z,17.40
2018-02-24T11:55:46.935Z,17.10
2018-02-24T11:58:14.460Z,17.00
2018-02-24T12:00:42.167Z,16.90
2018-02-24T12:03:10.447Z,17.90
2018-02-24T12:05:38.706Z,16.70
2018-02-24T12:08:06.251Z,16.60
2018-02-24T12:10:33.740Z,16.00
2018-02-24T12:13:02.042Z,17.40
2018-02-24T12:15:29.549Z,17.40
2018-02-24T12:17:57.099Z,16.80
2018-02-24T12:20:24.587Z,16.20
2018-02-24T12:22:52.856Z,16.50
2018-02-24T12:25:20.398Z,16.30
2018-02-24T12:27:47.879Z,16.80
2018-02-24T12:30:15.386Z,16.10
2018-02-24T12:32:42.881Z,18.40
2018-02-24T12:35:10.408Z,18.00
2018-02-24T12:37:37.903Z,17.40
2018-02-24T12:40:05.412Z,17.30
2018-02-24T12:42:32.893Z,15.70
2018-02-24T12:45:00.412Z,16.80
2018-02-24T12:47:27.904Z,16.70
2018-02-24T12:49:55.430Z,17.00
2018-02-24T12:52:22.936Z,17.10
2018-02-24T12:54:50.451Z,14.90
2018-02-24T12:57:17.937Z,16.20
2018-02-24T12:59:45.453Z,16.60
2018-02-24T13:02:13.730Z,16.20
2018-02-24T13:04:41.992Z,15.70
2018-02-24T13:07:10.266Z,16.00
2018-02-24T13:09:37.812Z,16.00
2018-02-24T13:12:05.309Z,15.50
2018-02-24T13:14:32.811Z,17.20
2018-02-24T13:17:00.303Z,16.40
2018-02-24T13:19:27.829Z,15.50
2018-02-24T13:21:55.365Z,15.50
2018-02-24T13:24:22.883Z,16.20
2018-02-24T13:26:51.155Z,16.00
2018-02-24T13:29:19.454Z,15.90
2018-02-24T13:31:46.948Z,15.90
2018-02-24T13:34:14.468Z,16.00
2018-02-24T13:36:41.969Z,15.90
2018-02-24T13:39:09.505Z,15.70
2018-02-24T13:41:37.775Z,15.80
2018-02-24T13:44:05.372Z,15.80
2018-02-24T13:46:32.848Z,15.50
2018-02-24T13:49:00.371Z,14.60
2018-02-24T13:51:27.870Z,14.90
2018-02-24T13:53:55.475Z,14.90
2018-02-24T13:56:22.979Z,15.00
2018-02-24T13:58:50.493Z,16.70
2018-02-24T14:01:17.990Z,14.70
2018-02-24T14:03:45.511Z,14.90
2018-02-24T14:06:13.023Z,15.10
2018-02-24T14:08:41.305Z,15.70
2018-02-24T14:11:09.550Z,15.80
2018-02-24T14:13:37.672Z,15.80
2018-02-24T14:16:05.175Z,16.30
2018-02-24T14:18:32.670Z,16.20
2018-02-24T14:21:00.962Z,15.90
2018-02-24T14:23:28.870Z,15.80
2018-02-24T14:25:56.485Z,15.50
2018-02-24T14:28:25.046Z,15.40
2018-02-24T14:30:52.610Z,15.40
2018-02-24T14:33:20.109Z,15.30
2018-02-24T14:35:47.634Z,15.80
2018-02-24T14:38:15.139Z,16.20
2018-02-24T14:40:43.404Z,16.70
2018-02-24T14:43:10.905Z,16.70
2018-02-24T14:45:38.387Z,16.70
2018-02-24T14:48:06.685Z,17.20
2018-02-24T14:50:34.164Z,17.20
2018-02-24T14:53:01.675Z,17.10
2018-02-24T14:55:29.917Z,16.40
2018-02-24T14:57:57.444Z,16.40
2018-02-24T15:00:24.950Z,17.00
2018-02-24T15:02:52.463Z,17.00
2018-02-24T15:05:20.718Z,18.90
2018-02-24T15:07:49.005Z,18.60
2018-02-24T15:10:16.486Z,18.60
2018-02-24T15:12:43.972Z,19.60
2018-02-24T15:15:11.469Z,19.90
2018-02-24T15:17:39.002Z,21.70
2018-02-24T15:20:06.490Z,20.70
2018-02-24T15:22:34.015Z,21.40
2018-02-24T15:25:01.493Z,20.90
2018-02-24T15:27:29.786Z,22.40
2018-02-24T15:29:57.358Z,22.40
2018-02-24T15:32:24.857Z,23.30
2018-02-24T15:34:53.129Z,25.00
2018-02-24T15:37:20.659Z,25.00
2018-02-24T15:39:48.148Z,25.40
2018-02-24T15:42:15.680Z,25.50
2018-02-24T15:44:43.163Z,27.10
2018-02-24T15:47:10.678Z,26.40
2018-02-24T15:49:38.152Z,26.50
2018-02-24T15:52:05.732Z,28.00
2018-02-24T15:54:33.184Z,28.60
2018-02-24T15:57:01.696Z,29.70
2018-02-24T15:59:29.163Z,30.60
2018-02-24T16:01:57.462Z,30.30
2018-02-24T16:04:24.947Z,30.20
2018-02-24T16:06:52.462Z,30.30
2018-02-24T16:09:20.723Z,31.50
2018-02-24T16:11:48.236Z,31.60
2018-02-24T16:14:15.727Z,33.40
2018-02-24T16:16:43.238Z,34.30
2018-02-24T16:19:10.720Z,33.60
2018-02-24T16:21:38.233Z,32.80
2018-02-24T16:24:06.478Z,34.10
2018-02-24T16:26:33.975Z,34.10
2018-02-24T16:29:01.461Z,34.50
2018-02-24T16:31:28.953Z,35.50
2018-02-24T16:33:56.458Z,35.90
2018-02-24T16:36:24.430Z,36.70
2018-02-24T16:38:52.749Z,37.50
2018-02-24T16:41:20.276Z,37.50
2018-02-24T16:43:48.591Z,38.50
2018-02-24T16:46:16.055Z,38.50
2018-02-24T16:48:43.569Z,38.70
2018-02-24T16:51:11.060Z,39.50
2018-02-24T16:53:38.560Z,41.00
2018-02-24T16:56:06.105Z,40.50
2018-02-24T16:58:33.597Z,39.80
2018-02-24T17:01:02.176Z,41.40
2018-02-24T17:03:29.888Z,40.80
2018-02-24T17:05:57.501Z,40.70
2018-02-24T17:08:25.026Z,42.70
2018-02-24T17:10:53.272Z,43.60
2018-02-24T17:13:20.797Z,43.50
2018-02-24T17:15:48.289Z,42.80
2018-02-24T17:18:15.805Z,42.40
2018-02-24T17:20:43.316Z,43.40
2018-02-24T17:23:10.900Z,43.50
2018-02-24T17:25:39.179Z,45.00
2018-02-24T17:28:06.712Z,45.10
2018-02-24T17:30:34.204Z,44.10
2018-02-24T17:33:01.733Z,44.20
2018-02-24T17:35:29.219Z,45.00
2018-02-24T17:37:56.734Z,44.00
2018-02-24T17:40:24.220Z,45.10
2018-02-24T17:42:52.533Z,42.90
2018-02-24T17:45:20.008Z,42.90
2018-02-24T17:47:47.529Z,45.00
2018-02-24T17:50:15.014Z,44.90
2018-02-24T17:52:42.552Z,43.40
2018-02-24T17:55:10.040Z,43.30
2018-02-24T17:57:37.523Z,43.50
2018-02-24T18:00:05.028Z,43.90
2018-02-24T18:02:32.568Z,44.20
2018-02-24T18:05:00.047Z,44.90
2018-02-24T18:07:28.024Z,45.30
2018-02-24T18:09:55.541Z,43.00
2018-02-24T18:12:23.040Z,44.00
2018-02-24T18:14:50.527Z,44.40
2018-02-24T18:17:18.096Z,45.10
2018-02-24T18:19:45.591Z,44.80
2018-02-24T18:22:13.852Z,44.10
2018-02-24T18:24:42.125Z,45.60
2018-02-24T18:27:09.657Z,45.60
2018-02-24T18:29:37.147Z,45.10
2018-02-24T18:32:04.654Z,44.20
2018-02-24T18:34:32.157Z,44.00
2018-02-24T18:36:59.653Z,45.50
2018-02-24T18:39:27.141Z,44.00
2018-02-24T18:41:54.646Z,45.30
2018-02-24T18:44:22.909Z,44.20
2018-02-24T18:46:50.443Z,44.20
2018-02-24T18:49:17.946Z,43.60
2018-02-24T18:51:45.490Z,43.00
2018-02-24T18:54:13.732Z,45.00
2018-02-24T18:56:41.287Z,45.00
2018-02-24T18:59:08.768Z,44.50
2018-02-24T19:01:36.383Z,45.00
2018-02-24T19:04:03.885Z,43.00
2018-02-24T19:06:31.374Z,43.50
2018-02-24T19:08:58.900Z,45.10
2018-02-24T19:11:26.405Z,44.10
2018-02-24T19:13:53.918Z,43.00
2018-02-24T19:16:21.397Z,42.10
2018-02-24T19:18:49.685Z,44.30
2018-02-24T19:21:17.146Z,44.20
2018-02-24T19:23:46.891Z,44.80
2018-02-24T19:26:14.531Z,45.00
2018-02-24T19:28:42.914Z,42.80
2018-02-24T19:31:10.414Z,42.70
2018-02-24T19:33:37.916Z,44.80
2018-02-24T19:36:05.417Z,44.90
2018-02-24T19:38:32.924Z,43.90
2018-02-24T19:41:01.176Z,43.80
2018-02-24T19:43:28.697Z,43.70
2018-02-24T19:45:56.164Z,46.70
2018-02-24T19:48:23.692Z,44.40
2018-02-24T19:50:51.171Z,43.60
2018-02-24T19:53:18.675Z,44.50
2018-02-24T19:55:46.153Z,43.20
2018-02-24T19:58:13.652Z,44.30
2018-02-24T20:00:41.140Z,42.70
2018-02-24T20:03:08.773Z,43.50
2018-02-24T20:05:36.264Z,44.90
2018-02-24T20:08:03.760Z,43.80
2018-02-24T20:10:31.277Z,41.60
2018-02-24T20:12:58.768Z,43.70
2018-02-24T20:15:26.286Z,43.50
2018-02-24T20:17:53.779Z,42.50
2018-02-24T20:20:21.289Z,45.10
2018-02-24T20:22:48.761Z,44.00
2018-02-24T20:25:16.285Z,45.50
2018-02-24T20:27:43.814Z,45.20
2018-02-24T20:30:11.322Z,44.50
2018-02-24T20:32:38.818Z,43.40
2018-02-24T20:35:06.338Z,43.70
2018-02-24T20:37:33.814Z,44.50
2018-02-24T20:40:01.320Z,43.50
2018-02-24T20:42:28.836Z,44.60
2018-02-24T20:44:56.360Z,43.70
2018-02-24T20:47:23.854Z,44.40
2018-02-24T20:49:51.346Z,46.60
2018-02-24T20:52:18.862Z,43.50
2018-02-24T20:54:46.696Z,44.50
2018-02-24T20:57:14.196Z,42.90
2018-02-24T20:59:42.477Z,43.20
2018-02-24T21:02:09.991Z,43.10
2018-02-24T21:04:37.491Z,44.20
2018-02-24T21:07:05.753Z,42.80
2018-02-24T21:09:33.256Z,42.80
2018-02-24T21:12:00.784Z,43.80
2018-02-24T21:14:28.260Z,41.70
2018-02-24T21:16:55.777Z,43.60
2018-02-24T21:19:23.274Z,42.10
2018-02-24T21:21:50.797Z,43.20
2018-02-24T21:24:18.286Z,46.20
2018-02-24T21:26:45.824Z,45.10
2018-02-24T21:29:13.311Z,44.20
2018-02-24T21:31:40.817Z,43.80
2018-02-24T21:34:08.338Z,46.20
2018-02-24T21:36:35.856Z,42.50
2018-02-24T21:39:03.415Z,44.00
2018-02-24T21:41:32.246Z,44.50
2018-02-24T21:43:59.929Z,44.40
2018-02-24T21:46:28.606Z,44.80
2018-02-24T21:48:57.568Z,42.90
2018-02-24T21:51:25.243Z,45.10
2018-02-24T21:53:52.725Z,44.00
2018-02-24T21:56:20.262Z,43.40
2018-02-24T21:58:47.736Z,42.90
2018-02-24T22:01:15.255Z,43.90
2018-02-24T22:03:43.501Z,43.70
2018-02-24T22:06:11.046Z,43.80
2018-02-24T22:08:38.585Z,43.70
2018-02-24T22:11:06.123Z,44.40
2018-02-24T22:13:33.607Z,43.70
2018-02-24T22:16:01.094Z,45.70
2018-02-24T22:18:28.629Z,45.70
2018-02-24T22:20:56.111Z,43.00
2018-02-24T22:23:23.640Z,42.90
2018-02-24T22:25:51.116Z,42.10
2018-02-24T22:28:18.617Z,43.90
2018-02-24T22:30:46.862Z,43.60
2018-02-24T22:33:14.387Z,43.60
2018-02-24T22:35:41.860Z,44.60
2018-02-24T22:38:09.394Z,43.70
2018-02-24T22:40:36.956Z,44.10
2018-02-24T22:43:04.489Z,44.70
2018-02-24T22:45:32.757Z,43.80
2018-02-24T22:48:06.767Z,43.20
2018-02-24T22:50:35.056Z,42.90
2018-02-24T22:53:03.361Z,43.50
2018-02-24T22:55:30.882Z,43.60
2018-02-24T22:57:59.138Z,45.10
2018-02-24T23:00:29.535Z,45.20
2018-02-24T23:02:57.615Z,45.60
2018-02-24T23:05:25.121Z,41.70
2018-02-24T23:07:53.375Z,44.30
2018-02-24T23:10:20.882Z,44.30
2018-02-24T23:12:48.364Z,42.80
2018-02-24T23:15:15.908Z,45.40
2018-02-24T23:17:43.385Z,43.10
2018-02-24T23:20:10.904Z,42.20
2018-02-24T23:22:38.379Z,43.50
2018-02-24T23:25:05.899Z,41.30
2018-02-24T23:27:34.145Z,45.80
2018-02-24T23:30:01.656Z,45.80
2018-02-24T23:32:29.139Z,42.70
2018-02-24T23:34:57.425Z,44.60
2018-02-24T23:37:24.906Z,44.60
2018-02-24T23:39:52.437Z,42.90
2018-02-24T23:42:19.943Z,46.40
2018-02-24T23:44:48.225Z,44.10
2018-02-24T23:47:16.457Z,44.20
2018-02-24T23:49:43.988Z,44.30
2018-02-24T23:52:11.480Z,43.60
2018-02-24T23:54:39.031Z,45.00
2018-02-24T23:57:06.555Z,44.20
2018-02-24T23:59:34.089Z,45.50
